Lee — WDI8777 — position and weather

sailwx.info

Track history (hours):
 
Tides and Currents Weather Stations Pressure Air Temp Water Temp Dewpoint Dewpoint Depression Visibility Wind Speed Wind Dir Waves Ship Positions

Lee

Owner: Carson Maritime, LLC, Saint Augustine, FL. More information available from US FCC via Universal Licensing System and Coast Guard Vessel Documentation Center.

Last reported at 2017-Sep-01 18:33 UTC. Time now 2017-Sep-23 03:52 UTC.
Position N 18°23' W 064°37'.
Warning: this ship's position is 21 days out of date.

Length 11 m.

Type: Pleasure craft. MMSI: 367742070.

Date/timePositionNaut miles runAvg speedWind from/ knotsBaromVisibWave heightAir tempDewpointWater temp
2017-Sep-01 18:33N 18°23' W 064°37'  
2017-Aug-29 20:41N 18°24' W 064°35'2 1.0
2017-Aug-29 18:11N 18°24' W 064°37'16 0.7
2017-Aug-28 20:15N 18°18' W 064°52'4 6.8
2017-Aug-28 19:43N 18°19' W 064°49'210.3
2017-Aug-28 19:30N 18°21' W 064°48'3 4.6
2017-Aug-28 18:55N 18°22' W 064°45'0 0.2
2017-Aug-28 18:30N 18°22' W 064°45'1 1.2
2017-Aug-28 18:00N 18°22' W 064°46'3 5.0
2017-Aug-28 17:30N 18°20' W 064°48'3 5.3
2017-Aug-28 16:55N 18°22' W 064°45'0 0.0
2017-Aug-27 21:29N 18°22' W 064°45'0 0.0
2017-Aug-27 20:56N 18°22' W 064°45'0 0.0
2017-Aug-27 20:26N 18°22' W 064°45'0 0.1
2017-Aug-27 20:00N 18°22' W 064°45'5 8.9
2017-Aug-27 19:26N 18°27' W 064°45'0 0.0
2017-Aug-27 18:57N 18°27' W 064°45'0 0.0
2017-Aug-27 18:27N 18°27' W 064°45'0 0.0
2017-Aug-27 17:59N 18°27' W 064°45'1 2.8
2017-Aug-27 17:30N 18°25' W 064°45'4 0.2
2017-Aug-26 21:13N 18°22' W 064°45'0 0.2
2017-Aug-26 20:56N 18°22' W 064°45'0 0.1
2017-Aug-26 20:09N 18°22' W 064°45'0 2.3
2017-Aug-26 20:00N 18°22' W 064°45'4 7.0
2017-Aug-26 19:30N 18°20' W 064°48'0 0.5
2017-Aug-26 19:00N 18°20' W 064°48'3 6.0
2017-Aug-26 18:29N 18°22' W 064°45'0 0.0
2017-Aug-26 17:59N 18°22' W 064°45'0 0.4
2017-Aug-26 17:30N 18°22' W 064°45'2 4.0
2017-Aug-26 17:00N 18°22' W 064°47'  
2017-Aug-23 20:00N 18°20' W 064°50'2 4.4
2017-Aug-23 19:30N 18°20' W 064°48'0 0.2
2017-Aug-23 18:55N 18°20' W 064°48'0 0.0
2017-Aug-23 18:25N 18°20' W 064°48'0 0.0
2017-Aug-23 18:00N 18°20' W 064°48'0 0.2
2017-Aug-23 17:28N 18°20' W 064°48'0 0.0
2017-Aug-23 17:00N 18°20' W 064°48'0 0.1
2017-Aug-23 16:30N 18°20' W 064°48'3 6.0
2017-Aug-23 15:55N 18°17' W 064°50'  
Track history (hours):
 
Tides and Currents Weather Stations Pressure Air Temp Water Temp Dewpoint Dewpoint Depression Visibility Wind Speed Wind Dir Waves Ship Positions

Lee

Owner: Carson Maritime, LLC, Saint Augustine, FL. More information available from US FCC via Universal Licensing System and Coast Guard Vessel Documentation Center.

Last reported at 2017-Sep-01 18:33 UTC. Time now 2017-Sep-23 03:52 UTC.
Position N 18°23' W 064°37'.
Warning: this ship's position is 21 days out of date.

Length 11 m.

Type: Pleasure craft. MMSI: 367742070.

Date/timePositionNaut miles runAvg speedWind from/ knotsBaromVisibWave heightAir tempDewpointWater temp
2017-Sep-01 18:33N 18°23' W 064°37'  
2017-Aug-29 20:41N 18°24' W 064°35'2 1.0
2017-Aug-29 18:11N 18°24' W 064°37'16 0.7
2017-Aug-28 20:15N 18°18' W 064°52'4 6.8
2017-Aug-28 19:43N 18°19' W 064°49'210.3
2017-Aug-28 19:30N 18°21' W 064°48'3 4.6
2017-Aug-28 18:55N 18°22' W 064°45'0 0.2
2017-Aug-28 18:30N 18°22' W 064°45'1 1.2
2017-Aug-28 18:00N 18°22' W 064°46'3 5.0
2017-Aug-28 17:30N 18°20' W 064°48'3 5.3
2017-Aug-28 16:55N 18°22' W 064°45'0 0.0
2017-Aug-27 21:29N 18°22' W 064°45'0 0.0
2017-Aug-27 20:56N 18°22' W 064°45'0 0.0
2017-Aug-27 20:26N 18°22' W 064°45'0 0.1
2017-Aug-27 20:00N 18°22' W 064°45'5 8.9
2017-Aug-27 19:26N 18°27' W 064°45'0 0.0
2017-Aug-27 18:57N 18°27' W 064°45'0 0.0
2017-Aug-27 18:27N 18°27' W 064°45'0 0.0
2017-Aug-27 17:59N 18°27' W 064°45'1 2.8
2017-Aug-27 17:30N 18°25' W 064°45'4 0.2
2017-Aug-26 21:13N 18°22' W 064°45'0 0.2
2017-Aug-26 20:56N 18°22' W 064°45'0 0.1
2017-Aug-26 20:09N 18°22' W 064°45'0 2.3
2017-Aug-26 20:00N 18°22' W 064°45'4 7.0
2017-Aug-26 19:30N 18°20' W 064°48'0 0.5
2017-Aug-26 19:00N 18°20' W 064°48'3 6.0
2017-Aug-26 18:29N 18°22' W 064°45'0 0.0
2017-Aug-26 17:59N 18°22' W 064°45'0 0.4
2017-Aug-26 17:30N 18°22' W 064°45'2 4.0
2017-Aug-26 17:00N 18°22' W 064°47'  
2017-Aug-23 20:00N 18°20' W 064°50'2 4.4
2017-Aug-23 19:30N 18°20' W 064°48'0 0.2
2017-Aug-23 18:55N 18°20' W 064°48'0 0.0
2017-Aug-23 18:25N 18°20' W 064°48'0 0.0
2017-Aug-23 18:00N 18°20' W 064°48'0 0.2
2017-Aug-23 17:28N 18°20' W 064°48'0 0.0
2017-Aug-23 17:00N 18°20' W 064°48'0 0.1
2017-Aug-23 16:30N 18°20' W 064°48'3 6.0
2017-Aug-23 15:55N 18°17' W 064°50'  

Dump ship's entire track history